createdAt,value
2018-12-07T00:02:06.280Z,99453.10
2018-12-07T00:04:37.236Z,99450.68
2018-12-07T00:07:08.076Z,99449.95
2018-12-07T00:09:39.097Z,99445.91
2018-12-07T00:12:09.846Z,99442.13
2018-12-07T00:14:40.578Z,99436.84
2018-12-07T00:17:11.442Z,99429.39
2018-12-07T00:19:47.908Z,99430.92
2018-12-07T00:22:15.268Z,99432.45
2018-12-07T00:24:46.233Z,99438.75
2018-12-07T00:27:17.073Z,99437.91
2018-12-07T00:29:47.930Z,99441.27
2018-12-07T00:32:18.767Z,99442.75
2018-12-07T00:34:49.641Z,99444.61
2018-12-07T00:37:20.314Z,99455.25
2018-12-07T00:39:51.223Z,99454.90
2018-12-07T00:42:22.031Z,99450.17
2018-12-07T00:44:52.834Z,99444.27
2018-12-07T00:47:23.907Z,99450.61
2018-12-07T00:49:54.683Z,99449.41
2018-12-07T00:52:26.230Z,99454.81
2018-12-07T00:54:57.207Z,99464.50
2018-12-07T00:57:28.164Z,99468.69
2018-12-07T00:59:59.019Z,99463.34
2018-12-07T01:02:29.700Z,99464.80
2018-12-07T01:05:00.568Z,99461.22
2018-12-07T01:07:31.388Z,99467.89
2018-12-07T01:10:02.294Z,99467.95
2018-12-07T01:12:33.041Z,99472.33
2018-12-07T01:15:03.939Z,99473.21
2018-12-07T01:17:34.689Z,99466.57
2018-12-07T01:20:05.767Z,99459.31
2018-12-07T01:22:36.546Z,99461.28
2018-12-07T01:25:07.458Z,99459.90
2018-12-07T01:27:39.172Z,99464.66
2018-12-07T01:30:10.455Z,99461.98
2018-12-07T01:32:41.348Z,99470.50
2018-12-07T01:35:12.238Z,99464.80
2018-12-07T01:37:43.056Z,99467.67
2018-12-07T01:40:14.072Z,99463.44
2018-12-07T01:42:45.098Z,99464.74
2018-12-07T01:45:16.930Z,99469.09
2018-12-07T01:47:47.744Z,99475.09
2018-12-07T01:50:18.849Z,99474.20
2018-12-07T01:52:49.979Z,99468.78
2018-12-07T01:55:20.883Z,99473.19
2018-12-07T01:57:51.867Z,99475.59
2018-12-07T02:00:22.875Z,99482.54
2018-12-07T02:02:54.831Z,99484.95
2018-12-07T02:05:25.735Z,99478.77
2018-12-07T02:07:57.053Z,99472.91
2018-12-07T02:10:27.983Z,99472.25
2018-12-07T02:12:58.899Z,99476.54
2018-12-07T02:15:29.796Z,99477.09
2018-12-07T02:18:01.496Z,99481.14
2018-12-07T02:20:32.254Z,99486.80
2018-12-07T02:23:03.356Z,99486.41
2018-12-07T02:25:34.261Z,99478.97
2018-12-07T02:28:05.203Z,99483.53
2018-12-07T02:30:36.140Z,99479.08
2018-12-07T02:33:07.109Z,99472.61
2018-12-07T02:35:37.880Z,99477.67
2018-12-07T02:38:08.633Z,99472.48
2018-12-07T02:40:39.412Z,99474.80
2018-12-07T02:43:10.186Z,99476.22
2018-12-07T02:45:41.152Z,99469.92
2018-12-07T02:48:12.139Z,99473.98
2018-12-07T02:50:42.770Z,99460.77
2018-12-07T02:53:13.577Z,99468.94
2018-12-07T02:55:44.369Z,99465.14
2018-12-07T02:58:16.165Z,99461.38
2018-12-07T03:00:47.056Z,99458.80
2018-12-07T03:03:17.869Z,99445.58
2018-12-07T03:05:48.481Z,99447.37
2018-12-07T03:08:19.299Z,99440.11
2018-12-07T03:10:50.249Z,99441.11
2018-12-07T03:13:21.211Z,99433.73
2018-12-07T03:15:52.171Z,99434.17
2018-12-07T03:18:33.021Z,99434.28
2018-12-07T03:21:03.711Z,99432.14
2018-12-07T03:23:34.480Z,99438.05
2018-12-07T03:26:05.467Z,99433.16
2018-12-07T03:28:36.037Z,99440.41
2018-12-07T03:31:06.975Z,99445.66
2018-12-07T03:33:37.842Z,99440.61
2018-12-07T03:36:08.728Z,99438.11
2018-12-07T03:38:39.684Z,99444.27
2018-12-07T03:41:11.861Z,99444.39
2018-12-07T03:43:42.555Z,99440.27
2018-12-07T03:46:13.509Z,99439.19
2018-12-07T03:48:44.556Z,99434.27
2018-12-07T03:51:15.389Z,99436.47
2018-12-07T03:53:46.040Z,99439.55
2018-12-07T03:56:16.994Z,99439.07
2018-12-07T03:58:47.893Z,99445.58
2018-12-07T04:01:18.568Z,99442.62
2018-12-07T04:03:49.298Z,99444.73
2018-12-07T04:06:20.117Z,99444.73
2018-12-07T04:08:51.076Z,99435.75
2018-12-07T04:11:21.945Z,99431.46
2018-12-07T04:13:52.686Z,99429.71
2018-12-07T04:16:23.488Z,99436.05
2018-12-07T04:18:55.098Z,99427.13
2018-12-07T04:21:25.913Z,99428.24
2018-12-07T04:23:56.566Z,99428.01
2018-12-07T04:26:27.106Z,99424.70
2018-12-07T04:28:57.839Z,99417.74
2018-12-07T04:31:28.653Z,99420.01
2018-12-07T04:33:59.451Z,99420.03
2018-12-07T04:36:30.374Z,99426.16
2018-12-07T04:39:01.063Z,99420.69
2018-12-07T04:41:31.840Z,99424.56
2018-12-07T04:44:02.660Z,99420.80
2018-12-07T04:46:33.606Z,99422.58
2018-12-07T04:49:04.305Z,99419.07
2018-12-07T04:51:35.342Z,99417.24
2018-12-07T04:54:06.190Z,99414.48
2018-12-07T04:56:36.831Z,99416.65
2018-12-07T04:59:07.703Z,99415.47
2018-12-07T05:01:38.713Z,99407.41
2018-12-07T05:04:09.311Z,99410.55
2018-12-07T05:06:40.347Z,99405.50
2018-12-07T05:09:11.248Z,99414.47
2018-12-07T05:11:42.162Z,99419.94
2018-12-07T05:14:12.716Z,99409.09
2018-12-07T05:16:43.612Z,99415.47
2018-12-07T05:19:14.472Z,99412.58
2018-12-07T05:21:45.241Z,99407.48
2018-12-07T05:24:16.377Z,99396.78
2018-12-07T05:26:47.121Z,99407.17
2018-12-07T05:29:18.186Z,99403.30
2018-12-07T05:31:49.186Z,99402.14
2018-12-07T05:34:20.310Z,99396.78
2018-12-07T05:36:52.056Z,99397.69
2018-12-07T05:39:22.796Z,99399.85
2018-12-07T05:41:53.608Z,99395.67
2018-12-07T05:44:24.506Z,99395.77
2018-12-07T05:46:56.013Z,99401.80
2018-12-07T05:49:26.793Z,99401.47
2018-12-07T05:51:57.554Z,99400.61
2018-12-07T05:54:28.452Z,99408.89
2018-12-07T05:56:59.471Z,99403.91
2018-12-07T05:59:30.186Z,99396.72
2018-12-07T06:02:01.352Z,99403.55
2018-12-07T06:04:32.542Z,99418.56
2018-12-07T06:07:03.497Z,99420.17
2018-12-07T06:09:35.005Z,99422.20
2018-12-07T06:12:06.449Z,99425.91
2018-12-07T06:14:37.803Z,99428.11
2018-12-07T06:17:08.680Z,99416.56
2018-12-07T06:19:39.666Z,99423.39
2018-12-07T06:22:10.643Z,99412.77
2018-12-07T06:24:42.196Z,99401.33
2018-12-07T06:27:13.102Z,99407.88
2018-12-07T06:29:43.929Z,99406.12
2018-12-07T06:32:14.829Z,99404.34
2018-12-07T06:34:45.981Z,99401.43
2018-12-07T06:37:17.354Z,99401.77
2018-12-07T06:39:48.121Z,99406.40
2018-12-07T06:42:19.241Z,99416.31
2018-12-07T06:44:49.940Z,99434.94
2018-12-07T06:47:20.748Z,99438.05
2018-12-07T06:49:52.178Z,99445.07
2018-12-07T06:52:23.085Z,99434.11
2018-12-07T06:54:53.805Z,99437.75
2018-12-07T06:57:24.988Z,99444.08
2018-12-07T06:59:55.875Z,99445.69
2018-12-07T07:02:28.085Z,99446.59
2018-12-07T07:04:58.958Z,99453.25
2018-12-07T07:07:29.854Z,99449.26
2018-12-07T07:10:00.760Z,99446.06
2018-12-07T07:12:31.761Z,99444.22
2018-12-07T07:15:02.469Z,99449.09
2018-12-07T07:17:33.474Z,99444.16
2018-12-07T07:20:04.706Z,99449.95
2018-12-07T07:22:35.570Z,99455.91
2018-12-07T07:25:06.815Z,99452.58
2018-12-07T07:27:38.784Z,99459.22
2018-12-07T07:30:10.856Z,99455.77
2018-12-07T07:32:41.683Z,99458.05
2018-12-07T07:35:12.394Z,99464.65
2018-12-07T07:37:44.097Z,99470.98
2018-12-07T07:40:14.915Z,99475.17
2018-12-07T07:42:45.765Z,99469.74
2018-12-07T07:45:16.895Z,99480.97
2018-12-07T07:47:48.038Z,99473.70
2018-12-07T07:50:18.852Z,99466.23
2018-12-07T07:52:49.659Z,99466.33
2018-12-07T07:55:20.596Z,99472.08
2018-12-07T07:57:51.908Z,99476.96
2018-12-07T08:00:22.823Z,99475.79
2018-12-07T08:02:53.488Z,99478.53
2018-12-07T08:05:24.487Z,99477.67
2018-12-07T08:07:55.692Z,99477.52
2018-12-07T08:10:26.854Z,99476.21
2018-12-07T08:12:58.824Z,99479.37
2018-12-07T08:15:30.025Z,99480.22
2018-12-07T08:18:01.125Z,99473.52
2018-12-07T08:20:32.423Z,99471.73
2018-12-07T08:23:03.567Z,99472.03
2018-12-07T08:25:34.550Z,99483.02
2018-12-07T08:28:05.417Z,99482.80
2018-12-07T08:30:36.230Z,99477.22
2018-12-07T08:33:07.074Z,99489.33
2018-12-07T08:35:38.015Z,99488.42
2018-12-07T08:38:08.821Z,99479.06
2018-12-07T08:40:39.863Z,99480.84
2018-12-07T08:43:10.710Z,99481.89
2018-12-07T08:45:41.698Z,99480.23
2018-12-07T08:48:13.259Z,99484.31
2018-12-07T08:50:44.110Z,99484.77
2018-12-07T08:53:15.993Z,99476.13
2018-12-07T08:55:46.874Z,99470.77
2018-12-07T08:58:17.894Z,99471.58
2018-12-07T09:00:48.769Z,99466.21
2018-12-07T09:03:19.638Z,99468.48
2018-12-07T09:05:51.724Z,99466.89
2018-12-07T09:08:22.649Z,99477.52
2018-12-07T09:10:53.657Z,99485.00
2018-12-07T09:13:24.490Z,99477.41
2018-12-07T09:15:55.426Z,99480.91
2018-12-07T09:18:26.449Z,99485.02
2018-12-07T09:20:58.071Z,99478.74
2018-12-07T09:23:29.078Z,99474.95
2018-12-07T09:26:00.067Z,99483.81
2018-12-07T09:28:30.882Z,99484.77
2018-12-07T09:31:01.730Z,99480.77
2018-12-07T09:33:32.364Z,99485.00
2018-12-07T09:36:03.468Z,99484.54
2018-12-07T09:38:34.877Z,99486.06
2018-12-07T09:41:07.170Z,99489.15
2018-12-07T09:43:38.101Z,99490.65
2018-12-07T09:46:09.464Z,99491.24
2018-12-07T09:48:40.443Z,99485.32
2018-12-07T09:51:11.883Z,99473.13
2018-12-07T09:53:42.726Z,99481.34
2018-12-07T09:56:13.683Z,99477.71
2018-12-07T09:58:44.665Z,99473.06
2018-12-07T10:01:15.599Z,99475.58
2018-12-07T10:03:46.960Z,99477.58
2018-12-07T10:06:18.352Z,99483.13
2018-12-07T10:08:49.903Z,99482.71
2018-12-07T10:11:21.334Z,99480.19
2018-12-07T10:13:52.637Z,99475.63
2018-12-07T10:16:23.956Z,99471.01
2018-12-07T10:18:55.344Z,99467.20
2018-12-07T10:21:27.031Z,99469.12
2018-12-07T10:23:58.154Z,99465.95
2018-12-07T10:26:29.181Z,99464.80
2018-12-07T10:29:00.680Z,99462.75
2018-12-07T10:31:32.273Z,99458.40
2018-12-07T10:34:03.151Z,99455.83
2018-12-07T10:36:34.006Z,99450.10
2018-12-07T10:39:06.227Z,99447.23
2018-12-07T10:41:37.048Z,99445.05
2018-12-07T10:44:07.990Z,99444.94
2018-12-07T10:46:39.231Z,99444.54
2018-12-07T10:49:09.808Z,99434.98
2018-12-07T10:51:41.316Z,99434.16
2018-12-07T10:54:12.296Z,99431.88
2018-12-07T10:56:43.892Z,99430.26
2018-12-07T10:59:15.595Z,99427.88
2018-12-07T11:01:51.540Z,99422.52
2018-12-07T11:04:27.440Z,99426.59
2018-12-07T11:08:04.143Z,99421.96
2018-12-07T11:10:41.063Z,99417.93
2018-12-07T11:13:17.647Z,99417.88
2018-12-07T11:15:54.546Z,99421.02
2018-12-07T11:18:30.542Z,99421.06
2018-12-07T11:21:06.256Z,99411.27
2018-12-07T11:23:43.060Z,99412.01
2018-12-07T11:26:19.058Z,99403.05
2018-12-07T11:28:54.878Z,99404.34
2018-12-07T11:31:31.278Z,99401.92
2018-12-07T11:34:09.882Z,99397.59
2018-12-07T11:36:41.224Z,99399.08
2018-12-07T11:39:12.700Z,99390.33
2018-12-07T11:41:43.885Z,99388.70
2018-12-07T11:44:15.368Z,99381.70
2018-12-07T11:46:46.817Z,99385.41
2018-12-07T11:49:17.767Z,99381.55
2018-12-07T11:51:49.368Z,99376.97
2018-12-07T11:54:20.632Z,99376.92
2018-12-07T11:56:52.672Z,99369.50
2018-12-07T11:59:23.918Z,99362.19
2018-12-07T12:01:54.954Z,99359.35
2018-12-07T12:04:25.901Z,99362.97
2018-12-07T12:06:56.816Z,99348.59
2018-12-07T12:09:27.954Z,99349.58
2018-12-07T12:11:59.099Z,99346.91
2018-12-07T12:14:30.126Z,99335.85
2018-12-07T12:17:01.777Z,99336.52
2018-12-07T12:19:33.177Z,99329.74
2018-12-07T12:22:04.511Z,99328.23
2018-12-07T12:24:35.986Z,99324.61
2018-12-07T12:27:07.308Z,99317.77
2018-12-07T12:29:39.651Z,99303.89
2018-12-07T12:32:11.193Z,99310.41
2018-12-07T12:34:41.970Z,99313.94
2018-12-07T12:37:13.364Z,99309.78
2018-12-07T12:39:44.505Z,99310.52
2018-12-07T12:42:15.614Z,99301.88
2018-12-07T12:44:47.143Z,99296.61
2018-12-07T12:47:18.653Z,99294.08
2018-12-07T12:49:49.924Z,99299.73
2018-12-07T12:52:21.500Z,99287.49
2018-12-07T12:54:52.644Z,99285.19
2018-12-07T12:57:23.722Z,99281.23
2018-12-07T12:59:54.501Z,99278.06
2018-12-07T13:02:26.100Z,99273.72
2018-12-07T13:04:57.538Z,99269.37
2018-12-07T13:07:28.608Z,99264.53
2018-12-07T13:10:00.055Z,99264.95
2018-12-07T13:12:30.935Z,99260.64
2018-12-07T13:15:01.753Z,99256.28
2018-12-07T13:17:32.570Z,99244.70
2018-12-07T13:20:03.523Z,99244.44
2018-12-07T13:22:34.677Z,99249.36
2018-12-07T13:25:06.258Z,99254.09
2018-12-07T13:27:37.380Z,99252.64
2018-12-07T13:30:09.806Z,99249.19
2018-12-07T13:32:40.751Z,99249.50
2018-12-07T13:35:13.496Z,99239.82
2018-12-07T13:37:45.275Z,99243.45
2018-12-07T13:40:16.660Z,99235.73
2018-12-07T13:42:48.043Z,99242.39
2018-12-07T13:45:19.643Z,99245.27
2018-12-07T13:47:50.976Z,99240.22
2018-12-07T13:50:26.984Z,99237.83
2018-12-07T13:52:57.909Z,99235.30
2018-12-07T13:55:29.800Z,99235.02
2018-12-07T13:58:01.393Z,99234.58
2018-12-07T14:00:33.678Z,99236.13
2018-12-07T14:03:05.941Z,99238.02
2018-12-07T14:05:37.034Z,99230.84
2018-12-07T14:08:09.202Z,99235.67
2018-12-07T14:10:40.509Z,99231.66
2018-12-07T14:13:12.328Z,99234.91
2018-12-07T14:15:43.822Z,99227.12
2018-12-07T14:18:15.434Z,99233.73
2018-12-07T14:20:46.311Z,99233.38
2018-12-07T14:23:17.710Z,99234.67
2018-12-07T14:25:49.212Z,99227.27
2018-12-07T14:28:20.531Z,99231.80
2018-12-07T14:30:51.998Z,99222.71
2018-12-07T14:33:23.506Z,99222.23
2018-12-07T14:35:54.621Z,99218.28
2018-12-07T14:38:25.696Z,99222.72
2018-12-07T14:40:57.201Z,99214.59
2018-12-07T14:43:28.474Z,99211.86
2018-12-07T14:46:00.157Z,99219.03
2018-12-07T14:48:31.363Z,99218.17
2018-12-07T14:51:03.583Z,99211.13
2018-12-07T14:53:34.884Z,99212.94
2018-12-07T14:56:06.200Z,99214.50
2018-12-07T14:58:37.339Z,99211.73
2018-12-07T15:01:08.476Z,99205.65
2018-12-07T15:03:39.565Z,99202.81
2018-12-07T15:06:11.202Z,99203.75
2018-12-07T15:08:42.105Z,99201.97
2018-12-07T15:11:13.185Z,99191.43
2018-12-07T15:13:44.522Z,99198.85
2018-12-07T15:16:16.263Z,99203.98
2018-12-07T15:18:47.402Z,99195.27
2018-12-07T15:21:19.316Z,99177.58
2018-12-07T15:23:50.543Z,99178.44
2018-12-07T15:26:22.482Z,99179.88
2018-12-07T15:28:53.990Z,99178.67
2018-12-07T15:31:26.173Z,99169.20
2018-12-07T15:33:57.245Z,99173.61
2018-12-07T15:36:28.928Z,99170.98
2018-12-07T15:39:00.461Z,99165.02
2018-12-07T15:41:32.360Z,99168.36
2018-12-07T15:44:03.818Z,99185.39
2018-12-07T15:46:35.202Z,99184.77
2018-12-07T15:49:06.435Z,99170.20
2018-12-07T15:51:37.824Z,99170.33
2018-12-07T15:54:10.087Z,99171.39
2018-12-07T15:56:42.932Z,99169.69
2018-12-07T15:59:16.190Z,99164.31
2018-12-07T16:01:50.018Z,99167.73
2018-12-07T16:04:27.073Z,99167.66
2018-12-07T16:06:59.743Z,99171.52
2018-12-07T16:09:32.052Z,99168.38
2018-12-07T16:12:03.965Z,99178.49
2018-12-07T16:14:36.507Z,99172.64
2018-12-07T16:17:30.256Z,99173.44
2018-12-07T16:20:04.377Z,99172.20
2018-12-07T16:22:35.811Z,99170.77
2018-12-07T16:25:09.454Z,99179.00
2018-12-07T16:27:41.277Z,99180.98
2018-12-07T16:30:13.949Z,99176.91
2018-12-07T16:32:45.774Z,99175.26
2018-12-07T16:35:18.468Z,99171.53
2018-12-07T16:37:51.216Z,99164.33
2018-12-07T16:40:23.443Z,99167.33
2018-12-07T16:42:56.537Z,99162.36
2018-12-07T16:45:28.481Z,99164.06
2018-12-07T16:48:01.681Z,99163.08
2018-12-07T16:50:35.397Z,99160.70
2018-12-07T16:53:08.163Z,99161.56
2018-12-07T16:55:39.813Z,99158.69
2018-12-07T16:58:12.332Z,99162.73
2018-12-07T17:00:45.946Z,99152.97
2018-12-07T17:03:18.888Z,99145.72
2018-12-07T17:05:51.178Z,99130.16
2018-12-07T17:08:23.193Z,99130.63
2018-12-07T17:10:55.121Z,99128.72
2018-12-07T17:13:26.625Z,99123.14
2018-12-07T17:15:58.362Z,99116.83
2018-12-07T17:18:30.999Z,99105.24
2018-12-07T17:21:02.734Z,99103.80
2018-12-07T17:23:34.008Z,99109.97
2018-12-07T17:26:05.264Z,99105.70
2018-12-07T17:28:36.698Z,99102.95
2018-12-07T17:31:07.867Z,99109.59
2018-12-07T17:33:39.267Z,99110.30
2018-12-07T17:36:11.110Z,99110.39
2018-12-07T17:38:42.873Z,99101.80
2018-12-07T17:41:14.876Z,99087.50
2018-12-07T17:43:46.847Z,99092.66
2018-12-07T17:46:18.009Z,99079.17
2018-12-07T17:48:50.986Z,99077.06
2018-12-07T17:51:22.470Z,99069.19
2018-12-07T17:53:55.138Z,99073.72
2018-12-07T17:56:26.502Z,99075.96
2018-12-07T17:58:58.899Z,99076.67
2018-12-07T18:01:30.345Z,99078.20
2018-12-07T18:04:01.365Z,99079.89
2018-12-07T18:06:32.437Z,99083.56
2018-12-07T18:09:04.532Z,99088.55
2018-12-07T18:11:35.913Z,99087.58
2018-12-07T18:14:07.527Z,99083.89
2018-12-07T18:16:38.359Z,99086.72
2018-12-07T18:19:10.060Z,99080.41
2018-12-07T18:21:42.197Z,99081.94
2018-12-07T18:24:13.932Z,99076.94
2018-12-07T18:26:45.911Z,99066.92
2018-12-07T18:29:17.262Z,99061.69
2018-12-07T18:31:48.507Z,99063.00
2018-12-07T18:34:19.601Z,99053.02
2018-12-07T18:36:51.212Z,99059.20
2018-12-07T18:39:22.272Z,99053.94
2018-12-07T18:41:53.713Z,99051.34
2018-12-07T18:44:25.020Z,99055.25
2018-12-07T18:46:56.430Z,99046.81
2018-12-07T18:49:27.881Z,99046.27
2018-12-07T18:51:59.720Z,99046.73
2018-12-07T18:54:32.069Z,99054.59
2018-12-07T18:57:04.134Z,99045.08
2018-12-07T18:59:35.819Z,99039.46
2018-12-07T19:02:07.264Z,99044.44
2018-12-07T19:04:39.257Z,99046.46
2018-12-07T19:07:10.950Z,99039.33
2018-12-07T19:09:42.571Z,99019.67
2018-12-07T19:12:13.733Z,99022.64
2018-12-07T19:14:45.046Z,99021.32
2018-12-07T19:17:16.507Z,99022.29
2018-12-07T19:19:48.054Z,99026.44
2018-12-07T19:22:19.447Z,99029.77
2018-12-07T19:24:52.863Z,99030.22
2018-12-07T19:27:24.200Z,99021.72
2018-12-07T19:29:55.922Z,99026.35
2018-12-07T19:32:26.939Z,99022.17
2018-12-07T19:34:58.393Z,99005.62
2018-12-07T19:37:30.983Z,99007.97
2018-12-07T19:40:02.790Z,98999.77
2018-12-07T19:42:34.555Z,98991.38
2018-12-07T19:45:06.713Z,99000.55
2018-12-07T19:47:38.922Z,98990.91
2018-12-07T19:50:10.933Z,98990.41
2018-12-07T19:52:43.634Z,98986.22
2018-12-07T19:55:15.453Z,98991.59
2018-12-07T19:57:47.384Z,98989.56
2018-12-07T20:00:18.793Z,98975.91
2018-12-07T20:02:51.555Z,98990.55
2018-12-07T20:05:23.206Z,98992.44
2018-12-07T20:07:55.188Z,98974.55
2018-12-07T20:10:29.111Z,98976.72
2018-12-07T20:13:00.536Z,98966.48
2018-12-07T20:15:32.273Z,98968.51
2018-12-07T20:18:03.909Z,98974.09
2018-12-07T20:20:35.903Z,98975.94
2018-12-07T20:23:06.915Z,98979.40
2018-12-07T20:25:38.449Z,98976.27
2018-12-07T20:28:10.794Z,98973.30
2018-12-07T20:30:43.415Z,98967.69
2018-12-07T20:33:15.946Z,98933.51
2018-12-07T20:35:47.457Z,98937.23
2018-12-07T20:38:18.804Z,98939.27
2018-12-07T20:40:50.516Z,98950.13
2018-12-07T20:43:21.628Z,98955.62
2018-12-07T20:45:52.868Z,98940.70
2018-12-07T20:48:24.261Z,98938.92
2018-12-07T20:50:56.601Z,98940.02
2018-12-07T20:53:29.064Z,98938.67
2018-12-07T20:56:01.540Z,98944.38
2018-12-07T20:58:33.382Z,98930.80
2018-12-07T21:01:04.914Z,98901.87
2018-12-07T21:04:00.108Z,98884.04
2018-12-07T21:07:50.319Z,98894.42
2018-12-07T21:11:33.547Z,98902.03
2018-12-07T21:14:28.493Z,98883.06
2018-12-07T21:17:20.567Z,98888.95
2018-12-07T21:20:30.463Z,98894.30
2018-12-07T21:23:02.738Z,98899.84
2018-12-07T21:25:36.702Z,98882.55
2018-12-07T21:28:08.393Z,98868.27
2018-12-07T21:30:54.370Z,98867.53
2018-12-07T21:33:57.857Z,98844.86
2018-12-07T21:36:45.130Z,98835.66
2018-12-07T21:39:27.235Z,98825.55
2018-12-07T21:41:59.528Z,98832.46
2018-12-07T21:44:30.626Z,98831.88
2018-12-07T21:47:01.882Z,98830.14
2018-12-07T21:49:52.808Z,98823.64
2018-12-07T21:52:29.129Z,98820.58
2018-12-07T21:55:00.463Z,98812.52
2018-12-07T21:57:31.911Z,98805.73
2018-12-07T22:00:05.723Z,98791.59
2018-12-07T22:02:37.501Z,98780.75
2018-12-07T22:05:09.838Z,98791.60
2018-12-07T22:07:41.470Z,98798.39
2018-12-07T22:10:12.836Z,98798.94
2018-12-07T22:12:44.377Z,98802.87
2018-12-07T22:15:15.567Z,98787.30
2018-12-07T22:17:46.832Z,98773.99
2018-12-07T22:20:18.300Z,98764.59
2018-12-07T22:22:49.327Z,98755.67
2018-12-07T22:25:20.977Z,98744.15
2018-12-07T22:27:52.472Z,98732.96
2018-12-07T22:30:23.624Z,98737.48
2018-12-07T22:32:54.675Z,98747.58
2018-12-07T22:35:26.126Z,98735.83
2018-12-07T22:37:57.257Z,98732.05
2018-12-07T22:40:28.863Z,98726.44
2018-12-07T22:42:59.929Z,98736.91
2018-12-07T22:45:31.161Z,98749.63
2018-12-07T22:48:02.161Z,98759.52
2018-12-07T22:50:34.371Z,98764.83
2018-12-07T22:53:05.392Z,98765.77
2018-12-07T22:55:36.866Z,98770.41
2018-12-07T22:58:07.777Z,98773.27
2018-12-07T23:00:40.789Z,98763.02
2018-12-07T23:03:11.745Z,98753.05
2018-12-07T23:05:43.488Z,98741.63
2018-12-07T23:08:14.870Z,98741.50
2018-12-07T23:10:45.820Z,98731.53
2018-12-07T23:13:17.121Z,98722.96
2018-12-07T23:15:48.897Z,98700.13
2018-12-07T23:18:19.837Z,98691.53
2018-12-07T23:20:50.822Z,98698.41
2018-12-07T23:23:22.408Z,98691.28
2018-12-07T23:25:53.244Z,98680.25
2018-12-07T23:28:24.193Z,98668.58
2018-12-07T23:30:55.089Z,98668.82
2018-12-07T23:33:26.066Z,98665.86
2018-12-07T23:35:56.861Z,98647.77
2018-12-07T23:38:27.721Z,98627.33
2018-12-07T23:40:59.620Z,98622.06
2018-12-07T23:43:30.547Z,98617.09
2018-12-07T23:46:01.620Z,98609.70
2018-12-07T23:48:32.512Z,98606.48
2018-12-07T23:51:03.466Z,98608.52
2018-12-07T23:53:34.721Z,98584.95
2018-12-07T23:56:05.543Z,98566.77
2018-12-07T23:58:36.252Z,98561.18
